Creston, IA

9:54 AM CST on December 20, 2014 (GMT -0600)
Creston Municipal | Change Station
CLOSE
Current Station
Airport
Location: Creston,
Elevation: 1293 ft
Nearby Weather Stations
Active Advisory: Special Statement

Elev 1293 ft 41.02 °N, 94.36 °W | Updated 19 minutes ago

Fog
Fog
--
Feels Like --
N
8
Wind Variable Wind from South

Today
High -- | Low -- °F
--% Chance of Precip.
Yesterday
High -- | Low -- °F
Precip. -- in
7:38 AM 4:51 PM
Waning Crescent, 3% visible
Pressure 30.15 in
Visibility 1.8 miles
Clouds Overcast 400 ft
Dew Point Not available.
Humidity Not available.
Rainfall 0.00 in
Snow Depth Not available.
UV 0 out of 12
Pollen .10 out of 12
Air Quality Not available.
Flu Activity Not available.
METAR KCSQ 201535Z AUTO 17007KT 1 3/4SM BR OVC004 M01/M00 A3015 RMK AO2

More Conditions Fewer Conditions

Pressure 30.15 in
Visibility 1.8 miles
Clouds Overcast 400 ft
Dew Point Not available.
Humidity Not available.
Rainfall 0.00 in
Snow Depth Not available.
UV 0 out of 12
Pollen .10 out of 12
Air Quality Not available.
Flu Activity Not available.
METAR KCSQ 201535Z AUTO 17007KT 1 3/4SM BR OVC004 M01/M00 A3015 RMK AO2

More Conditions Fewer Conditions

10-Day Weather Forecast

Almanac

Astronomy

Dec. 20, 2014 Rise Set
Actual Time
Civil Twilight
Nautical Twilight
Astronomical Twilight
Moon
Length of Visible Light
Length of Day
Tomorrow will be .
, % of the Moon is Illuminated

Today's Extremes

State Highs State Lows

Community

WunderPhotos

Upload Photos

1,779,211 photos uploaded!

WunderBlogs® & News

Nearby

Air Quality

  Air Quality AQ Index Pollutant
Not available.

Snow Depth

Station Depth Elevation

Earthquake Activity

City Distance Mag. Time & Date
Minimum magnitude displayed is 2.5.

Coastal Water Temperatures

Place Temperature

Nearby Weather Stations